Météo Nord-Pas-de-Calais   La météo au plus près de chez vous

Station météorologique

Observations météo à Chastreix (63098)

63098001 1385 m Dernier relevé à 23:00
11°C
Humidité 90 % Vent 0 km/h

Journée consultée

Lundi 31 Août 2026

Synthèse de la journée

Périodes de référence en UTC

Température maximale

16.1°C

à 17:00

06h 06h

Température minimale

8°C

à 07:54

18h 18h

Rafale maximale

34 km/h

à 11:48

00h 00h

Précipitations

0.1 mm

Cumul quotidien

06h 06h

Ensoleillement

3h 16 mins

Durée quotidienne

00h 00h

Graphiques de la journée

Heure locale Réduire

Données détaillées

Relevés météo

Pas de 6 minutes Afficher les relevés infra-horaires
Relevés météo détaillés à Chastreix pour le Lundi 31 Août 2026
Heure Température °C Point de rosée °C Humidité % Vent moyen (raf.), km/h Précipitations mm Ensoleillement min Rayonnement global W/m²
23:00 11 °C 9.3 °C 89 % 0 km/h (4 km/h) 0 mm0 mm 0 min 0 W/m²
22:54 11 °C 9.4 °C 90 % 2 km/h (5 km/h) 0 mm0 mm 0 min 0 W/m²
22:48 11.1 °C 9.5 °C 90 % 2 km/h (4 km/h) 0 mm0 mm 0 min 0 W/m²
22:42 11.1 °C 9.7 °C 91 % 2 km/h (5 km/h) 0 mm0 mm 0 min 0 W/m²
22:36 11.1 °C 9.7 °C 91 % 0 km/h (5 km/h) 0 mm0 mm 0 min 0 W/m²
22:30 11.1 °C 9.7 °C 91 % 0 km/h (6 km/h) 0 mm0 mm 0 min 0 W/m²
22:24 11.1 °C 9.7 °C 91 % 0 km/h (6 km/h) 0 mm0 mm 0 min 0 W/m²
22:18 11.1 °C 9.7 °C 91 % 0 km/h (3 km/h) 0 mm0 mm 0 min 0 W/m²
22:12 11.1 °C 9.7 °C 91 % 0 km/h (3 km/h) 0 mm0 mm 0 min 0 W/m²
22:06 11.1 °C 9.7 °C 91 % 0 km/h (3 km/h) 0 mm0 mm 0 min 0 W/m²
22:00 11.1 °C 9.5 °C 90 % 0 km/h (4 km/h) 0 mm0 mm 0 min 0 W/m²
21:54 11.2 °C 9.6 °C 90 % 2 km/h (4 km/h) 0 mm0 mm 0 min 0 W/m²
21:48 11.3 °C 9.6 °C 89 % 3 km/h (7 km/h) 0 mm0 mm 0 min 0 W/m²
21:42 11.4 °C 9.6 °C 89 % 5 km/h (11 km/h) 0 mm0 mm 0 min 0 W/m²
21:36 11.6 °C 10 °C 90 % 6 km/h (12 km/h) 0 mm0 mm 0 min 0 W/m²
21:30 11.6 °C 10 °C 90 % 4 km/h (11 km/h) 0 mm0 mm 0 min 0 W/m²
21:24 11.6 °C 10.2 °C 91 % 4 km/h (8 km/h) 0 mm0 mm 0 min 0 W/m²
21:18 11.6 °C 10.2 °C 91 % 4 km/h (7 km/h) 0 mm0 mm 0 min 0 W/m²
21:12 11.5 °C 9.9 °C 90 % 3 km/h (9 km/h) 0 mm0 mm 0 min 0 W/m²
21:06 11.4 °C 9.6 °C 89 % 3 km/h (7 km/h) 0 mm0 mm 0 min 0 W/m²
21:00 11.5 °C 9.6 °C 88 % 3 km/h (6 km/h) 0 mm0 mm 0 min 0 W/m²
20:54 11.5 °C 9.2 °C 86 % 3 km/h (7 km/h) 0 mm0 mm 0 min 0 W/m²
20:48 11.7 °C 9.4 °C 86 % 4 km/h (7 km/h) 0 mm0 mm 0 min 0 W/m²
20:42 12 °C 9.4 °C 84 % 4 km/h (7 km/h) 0 mm0 mm 0 min 0 W/m²
20:36 12.2 °C 9.4 °C 83 % 5 km/h (10 km/h) 0 mm0 mm 0 min 0 W/m²
20:30 12.4 °C 9.4 °C 82 % 7 km/h (13 km/h) 0 mm0 mm 0 min 0 W/m²
20:24 12.8 °C 9.6 °C 81 % 8 km/h (14 km/h) 0 mm0 mm 0 min 0.8 W/m²
20:18 13.1 °C 9.7 °C 80 % 10 km/h (18 km/h) 0 mm0 mm 0 min 5.7 W/m²
20:12 13.4 °C 9.6 °C 78 % 12 km/h (18 km/h) 0 mm0 mm 0 min 8.7 W/m²
20:06 13.7 °C 10.3 °C 80 % 12 km/h (21 km/h) 0 mm0 mm 6 min 21.8 W/m²
20:00 13.9 °C 10.5 °C 80 % 13 km/h (22 km/h) 0 mm0 mm 6 min 37 W/m²
19:54 13.9 °C 10.3 °C 79 % 13 km/h (22 km/h) 0 mm0 mm 6 min 39.4 W/m²
19:48 14.1 °C 10.3 °C 78 % 13 km/h (22 km/h) 0 mm0 mm 6 min 46.9 W/m²
19:42 14.5 °C 10.7 °C 78 % 13 km/h (24 km/h) 0 mm0 mm 6 min 62.5 W/m²
19:36 14.3 °C 10.1 °C 76 % 15 km/h (25 km/h) 0 mm0 mm 6 min 65.3 W/m²
19:30 14.2 °C 9.6 °C 74 % 17 km/h (27 km/h) 0 mm0 mm 6 min 57.4 W/m²
19:24 14.3 °C 9.7 °C 74 % 18 km/h (28 km/h) 0 mm0 mm 6 min 53.7 W/m²
19:18 14.7 °C 9.9 °C 73 % 17 km/h (29 km/h) 0 mm0 mm 6 min 70.8 W/m²
19:12 14.9 °C 10.7 °C 76 % 14 km/h (26 km/h) 0 mm0 mm 6 min 92 W/m²
19:06 14.7 °C 10.3 °C 75 % 16 km/h (30 km/h) 0 mm0 mm 5 min 67.3 W/m²
19:00 14.9 °C 10.1 °C 73 % 18 km/h (30 km/h) 0 mm0 mm 6 min 85.9 W/m²
18:54 14.8 °C 10.6 °C 76 % 17 km/h (26 km/h) 0 mm0 mm 6 min 106.1 W/m²
18:48 14.2 °C 9.4 °C 73 % 16 km/h (26 km/h) 0 mm0 mm 2 min 53.5 W/m²
18:42 14.8 °C 10.4 °C 75 % 16 km/h (27 km/h) 0 mm0 mm 5 min 95.2 W/m²
18:36 15.1 °C 10.9 °C 76 % 16 km/h (27 km/h) 0 mm0 mm 6 min 115.1 W/m²
18:30 15 °C 11 °C 77 % 13 km/h (23 km/h) 0 mm0 mm 6 min 152.2 W/m²
18:24 13.8 °C 9.4 °C 75 % 11 km/h (21 km/h) 0 mm0 mm 1 min 42.5 W/m²
18:18 14.2 °C 9.2 °C 72 % 12 km/h (21 km/h) 0 mm0 mm 2 min 56.9 W/m²
18:12 14.4 °C 9.6 °C 73 % 13 km/h (22 km/h) 0 mm0 mm 3 min 79.4 W/m²
18:06 14.6 °C 9.2 °C 70 % 16 km/h (28 km/h) 0 mm0 mm 1 min 62.6 W/m²
18:00 15.7 °C 10.7 °C 72 % 17 km/h (29 km/h) 0 mm0 mm 6 min 167.9 W/m²
17:54 15.5 °C 10.7 °C 73 % 16 km/h (29 km/h) 0 mm0 mm 6 min 191.2 W/m²
17:48 14.7 °C 10.3 °C 75 % 13 km/h (25 km/h) 0 mm0 mm 3 min 134.1 W/m²
17:42 14.2 °C 9.8 °C 75 % 13 km/h (22 km/h) 0 mm0 mm 0 min 67.8 W/m²
17:36 14.2 °C 9.6 °C 74 % 13 km/h (22 km/h) 0 mm0 mm 2 min 86 W/m²
17:30 14.2 °C 9.6 °C 74 % 13 km/h (22 km/h) 0 mm0 mm 0 min 42.2 W/m²
17:24 14.4 °C 9.4 °C 72 % 15 km/h (26 km/h) 0 mm0 mm 0 min 64.4 W/m²
17:18 14.5 °C 8.7 °C 68 % 17 km/h (27 km/h) 0 mm0 mm 1 min 103.6 W/m²
17:12 14.9 °C 9 °C 68 % 17 km/h (28 km/h) 0 mm0 mm 2 min 122.1 W/m²
17:06 15.6 °C 9.5 °C 67 % 18 km/h (30 km/h) 0 mm0 mm 3 min 179.7 W/m²
17:00 15.9 °C 10.2 °C 69 % 16 km/h (30 km/h) 0 mm0 mm 6 min 271.9 W/m²
16:54 16 °C 10.7 °C 71 % 14 km/h (26 km/h) 0 mm0 mm 6 min 262.5 W/m²
16:48 15.2 °C 10.2 °C 72 % 14 km/h (26 km/h) 0 mm0 mm 3 min 180.8 W/m²
16:42 14.7 °C 9.1 °C 69 % 15 km/h (25 km/h) 0 mm0 mm 1 min 121.1 W/m²
16:36 15.3 °C 9.9 °C 70 % 15 km/h (26 km/h) 0 mm0 mm 4 min 184 W/m²
16:30 15 °C 9.1 °C 68 % 18 km/h (33 km/h) 0 mm0 mm 2 min 168.7 W/m²
16:24 15.1 °C 9 °C 67 % 19 km/h (33 km/h) 0 mm0 mm 5 min 240.7 W/m²
16:18 14.9 °C 9.5 °C 70 % 19 km/h (31 km/h) 0 mm0 mm 4 min 173.8 W/m²
16:12 15.7 °C 10.5 °C 71 % 16 km/h (31 km/h) 0 mm0 mm 6 min 285.8 W/m²
16:06 15.1 °C 11.1 °C 77 % 15 km/h (28 km/h) 0 mm0 mm 6 min 288.9 W/m²
16:00 14.2 °C 9.4 °C 73 % 18 km/h (28 km/h) 0 mm0 mm 1 min 144.2 W/m²
15:54 14.2 °C 9.6 °C 74 % 20 km/h (31 km/h) 0 mm0 mm 2 min 152 W/m²
15:48 14.2 °C 10.8 °C 80 % 19 km/h (30 km/h) 0 mm0 mm 3 min 203.5 W/m²
15:42 13.6 °C 10.2 °C 80 % 17 km/h (31 km/h) 0 mm0 mm 1 min 132.4 W/m²
15:36 13.7 °C 10.1 °C 79 % 17 km/h (31 km/h) 0 mm0 mm 0 min 103.9 W/m²
15:30 14.1 °C 11.8 °C 86 % 14 km/h (25 km/h) 0 mm0 mm 4 min 229.6 W/m²
15:24 13.3 °C 11 °C 86 % 13 km/h (22 km/h) 0 mm0 mm 0 min 108.2 W/m²
15:18 13.3 °C 11.4 °C 88 % 18 km/h (29 km/h) 0 mm0 mm 2 min 146.2 W/m²
15:12 13.3 °C 12.2 °C 93 % 18 km/h (31 km/h) 0 mm0 mm 4 min 236.7 W/m²
15:06 12.7 °C 12.5 °C 99 % 14 km/h (24 km/h) 0 mm0 mm 2 min 199.3 W/m²
15:00 12 °C 11.8 °C 99 % 14 km/h (23 km/h) 0 mm0.1 mm 0 min 103.5 W/m²
14:54 11.8 °C 11.6 °C 99 % 15 km/h (28 km/h) 0 mm0 mm 0 min 99.1 W/m²
14:48 11.5 °C 11.3 °C 99 % 16 km/h (28 km/h) 0 mm0 mm 0 min 75.5 W/m²
14:42 11.4 °C 11.2 °C 99 % 16 km/h (29 km/h) 0 mm0 mm 0 min 118.2 W/m²
14:36 11.3 °C 11.1 °C 99 % 18 km/h (31 km/h) 0 mm0 mm 0 min 96.5 W/m²
14:30 11.2 °C 10.9 °C 98 % 19 km/h (31 km/h) 0 mm0 mm 0 min 49.9 W/m²
14:24 11.3 °C 11.1 °C 99 % 15 km/h (30 km/h) 0 mm0 mm 0 min 39.1 W/m²
14:18 11.3 °C 11 °C 98 % 13 km/h (22 km/h) 0 mm0 mm 0 min 79 W/m²
14:12 11.2 °C 10.6 °C 96 % 14 km/h (23 km/h) 0 mm0 mm 0 min 49.9 W/m²
14:06 11.1 °C 10.3 °C 95 % 17 km/h (30 km/h) 0.1 mm0 mm 0 min 47.6 W/m²
14:00 11.2 °C 10.1 °C 93 % 18 km/h (34 km/h) 0 mm0 mm 0 min 45.2 W/m²
13:54 11.7 °C 9.9 °C 89 % 17 km/h (34 km/h) 0 mm0 mm 0 min 52.6 W/m²
13:48 11.9 °C 9.8 °C 87 % 15 km/h (34 km/h) 0 mm0 mm 0 min 89.1 W/m²
13:42 11.7 °C 9.6 °C 87 % 16 km/h (30 km/h) 0 mm0 mm 0 min 44.5 W/m²
13:36 12.1 °C 9.8 °C 86 % 17 km/h (28 km/h) 0 mm0 mm 0 min 49.9 W/m²
13:30 12.2 °C 9.6 °C 84 % 17 km/h (28 km/h) 0 mm0 mm 0 min 99.2 W/m²
13:24 12.3 °C 10.4 °C 88 % 17 km/h (32 km/h) 0 mm0 mm 0 min 99.3 W/m²
13:18 11.9 °C 9.5 °C 85 % 17 km/h (32 km/h) 0 mm0 mm 0 min 71 W/m²
13:12 12 °C 10.1 °C 88 % 15 km/h (24 km/h) 0 mm0 mm 0 min 84.4 W/m²
13:06 12.1 °C 10.5 °C 90 % 15 km/h (26 km/h) 0 mm0 mm 0 min 100.6 W/m²
13:00 12.1 °C 10.8 °C 92 % 15 km/h (28 km/h) 0 mm0 mm 0 min 118 W/m²
12:54 11.7 °C 10.4 °C 92 % 16 km/h (28 km/h) 0 mm0 mm 0 min 146.7 W/m²
12:48 11.3 °C 9.9 °C 91 % 18 km/h (32 km/h) 0 mm0 mm 0 min 59.4 W/m²
12:42 11.5 °C 9.7 °C 89 % 17 km/h (32 km/h) 0 mm0 mm 0 min 95.1 W/m²
12:36 11.7 °C 10.3 °C 91 % 16 km/h (32 km/h) 0 mm0 mm 0 min 106.2 W/m²
12:30 12.2 °C 11.1 °C 93 % 17 km/h (32 km/h) 0 mm0 mm 2 min 184.1 W/m²
12:24 12 °C 11.5 °C 97 % 20 km/h (32 km/h) 0 mm0 mm 4 min 241.5 W/m²
12:18 11.3 °C 10.8 °C 97 % 20 km/h (33 km/h) 0 mm0 mm 2 min 153.6 W/m²
12:12 10.8 °C 10.3 °C 97 % 18 km/h (32 km/h) 0 mm0 mm 0 min 63.4 W/m²
12:06 10.7 °C 10.4 °C 98 % 17 km/h (29 km/h) 0 mm0 mm 0 min 82.5 W/m²
12:00 10.6 °C 10.3 °C 98 % 17 km/h (31 km/h) 0 mm0 mm 0 min 54 W/m²
11:54 10.5 °C 10.2 °C 98 % 17 km/h (31 km/h) 0 mm0 mm 0 min 66.5 W/m²
11:48 10.4 °C 10.1 °C 98 % 17 km/h (34 km/h) 0 mm0 mm 0 min 49.4 W/m²
11:42 10.6 °C 10.4 °C 99 % 16 km/h (33 km/h) 0 mm0 mm 0 min 77.5 W/m²
11:36 10.3 °C 10.1 °C 99 % 16 km/h (29 km/h) 0 mm0 mm 0 min 29.6 W/m²
11:30 10.5 °C 10.5 °C 100 % 14 km/h (25 km/h) 0 mm0 mm 0 min 60.5 W/m²
11:24 10.4 °C 10.4 °C 100 % 13 km/h (24 km/h) 0 mm0 mm 0 min 85.2 W/m²
11:18 10.1 °C 10.1 °C 100 % 12 km/h (24 km/h) 0 mm0 mm 0 min 40.4 W/m²
11:12 10.1 °C 10.1 °C 100 % 12 km/h (22 km/h) 0 mm0 mm 0 min 37.4 W/m²
11:06 10.2 °C 10.2 °C 100 % 13 km/h (23 km/h) 0 mm0 mm 0 min 68.4 W/m²
11:00 10.1 °C 10.1 °C 100 % 12 km/h (22 km/h) 0 mm0 mm 0 min 61.1 W/m²
10:54 10.3 °C 10.3 °C 100 % 12 km/h (20 km/h) 0 mm0 mm 0 min 96.5 W/m²
10:48 10.2 °C 10.2 °C 100 % 12 km/h (22 km/h) 0 mm0 mm 0 min 86.1 W/m²
10:42 9.8 °C 9.8 °C 100 % 13 km/h (22 km/h) 0 mm0 mm 0 min 80 W/m²
10:36 9.7 °C 9.7 °C 100 % 12 km/h (22 km/h) 0 mm0 mm 0 min 75.2 W/m²
10:30 9.6 °C 9.6 °C 100 % 12 km/h (22 km/h) 0 mm0 mm 0 min 65.6 W/m²
10:24 9.8 °C 9.8 °C 100 % 9 km/h (20 km/h) 0 mm0 mm 0 min 66.2 W/m²
10:18 9.5 °C 9.5 °C 100 % 10 km/h (24 km/h) 0 mm0 mm 0 min 68 W/m²
10:12 9.3 °C 9.3 °C 100 % 12 km/h (24 km/h) 0 mm0 mm 0 min 55.4 W/m²
10:06 9.1 °C 9.1 °C 100 % 12 km/h (23 km/h) 0 mm0 mm 0 min 40.5 W/m²
10:00 9 °C 9 °C 100 % 13 km/h (24 km/h) 0 mm0 mm 0 min 40 W/m²
09:54 8.8 °C 8.8 °C 100 % 12 km/h (24 km/h) 0 mm0 mm 0 min 31.8 W/m²
09:48 8.8 °C 8.8 °C 100 % 11 km/h (22 km/h) 0 mm0 mm 0 min 38.7 W/m²
09:42 8.7 °C 8.7 °C 100 % 10 km/h (18 km/h) 0 mm0 mm 0 min 32.5 W/m²
09:36 8.7 °C 8.7 °C 100 % 9 km/h (18 km/h) 0 mm0 mm 0 min 35.4 W/m²
09:30 8.6 °C 8.6 °C 100 % 11 km/h (19 km/h) 0 mm0 mm 0 min 39.2 W/m²
09:24 8.6 °C 8.6 °C 100 % 12 km/h (19 km/h) 0 mm0 mm 0 min 44.6 W/m²
09:18 8.7 °C 8.7 °C 100 % 12 km/h (21 km/h) 0 mm0 mm 0 min 27.7 W/m²
09:12 8.6 °C 8.6 °C 100 % 12 km/h (22 km/h) 0 mm0 mm 0 min 36.6 W/m²
09:06 8.5 °C 8.5 °C 100 % 12 km/h (24 km/h) 0 mm0 mm 0 min 19.4 W/m²
09:00 8.4 °C 8.4 °C 100 % 14 km/h (24 km/h) 0 mm0 mm 0 min 22.5 W/m²
08:54 8.4 °C 8.4 °C 100 % 15 km/h (23 km/h) 0 mm0 mm 0 min 16.1 W/m²
08:48 8.5 °C 8.5 °C 100 % 13 km/h (22 km/h) 0 mm0 mm 0 min 17.3 W/m²
08:42 8.4 °C 8.4 °C 100 % 13 km/h (22 km/h) 0 mm0 mm 0 min 17.8 W/m²
08:36 8.4 °C 8.4 °C 100 % 12 km/h (20 km/h) 0 mm0 mm 0 min 17.2 W/m²
08:30 8.4 °C 8.4 °C 100 % 12 km/h (22 km/h) 0 mm0 mm 0 min 17.9 W/m²
08:24 8.5 °C 8.5 °C 100 % 10 km/h (21 km/h) 0 mm0 mm 0 min 10.3 W/m²
08:18 8.4 °C 8.4 °C 100 % 9 km/h (19 km/h) 0 mm0 mm 0 min 8.4 W/m²
08:12 8.3 °C 8.3 °C 100 % 12 km/h (22 km/h) 0 mm0 mm 0 min 9.7 W/m²
08:06 8.3 °C 8.3 °C 100 % 13 km/h (22 km/h) 0 mm0 mm 0 min 9.6 W/m²
08:00 8.1 °C 8.1 °C 100 % 12 km/h (20 km/h) 0 mm0 mm 0 min 9 W/m²
07:54 8 °C 8 °C 100 % 12 km/h (22 km/h) 0 mm0 mm 0 min 5.4 W/m²
07:48 8.2 °C 8.2 °C 100 % 10 km/h (18 km/h) 0 mm0 mm 0 min 0 W/m²
07:42 8.1 °C 8.1 °C 100 % 13 km/h (23 km/h) 0 mm0 mm 0 min 0.4 W/m²
07:36 8.2 °C 8.2 °C 100 % 13 km/h (23 km/h) 0 mm0 mm 0 min 0 W/m²
07:30 8.4 °C 8.4 °C 100 % 12 km/h (23 km/h) 0 mm0 mm 0 min 0.2 W/m²
07:24 8.4 °C 8.4 °C 100 % 14 km/h (23 km/h) 0 mm0 mm 0 min 0 W/m²
07:18 8.4 °C 8.4 °C 100 % 14 km/h (23 km/h) 0 mm0 mm 0 min 0 W/m²
07:12 8.5 °C 8.5 °C 100 % 12 km/h (22 km/h) 0 mm0 mm 0 min 0 W/m²
07:06 8.5 °C 8.5 °C 100 % 14 km/h (27 km/h) 0 mm0 mm 0 min 0 W/m²
07:00 8.3 °C 8.3 °C 100 % 15 km/h (28 km/h) 0 mm0 mm 0 min 0 W/m²
06:54 8.5 °C 8.5 °C 100 % 15 km/h (25 km/h) 0 mm0 mm 0 min 0 W/m²
06:48 8.5 °C 8.5 °C 100 % 15 km/h (28 km/h) 0 mm0 mm 0 min 0 W/m²
06:42 8.5 °C 8.5 °C 100 % 15 km/h (28 km/h) 0 mm0 mm 0 min 0 W/m²
06:36 8.5 °C 8.5 °C 100 % 13 km/h (24 km/h) 0 mm0 mm 0 min 0 W/m²
06:30 8.5 °C 8.5 °C 100 % 13 km/h (24 km/h) 0 mm0 mm 0 min 0 W/m²
06:24 8.5 °C 8.5 °C 100 % 14 km/h (24 km/h) 0 mm0 mm 0 min 0 W/m²
06:18 8.5 °C 8.5 °C 100 % 13 km/h (24 km/h) 0 mm0 mm 0 min 0 W/m²
06:12 8.6 °C 8.6 °C 100 % 13 km/h (24 km/h) 0 mm0 mm 0 min 0 W/m²
06:06 8.5 °C 8.5 °C 100 % 13 km/h (24 km/h) 0 mm0 mm 0 min 0 W/m²
06:00 8.5 °C 8.5 °C 100 % 13 km/h (25 km/h) 0 mm0 mm 0 min 0 W/m²
05:54 8.6 °C 8.6 °C 100 % 12 km/h (23 km/h) 0 mm0 mm 0 min 0 W/m²
05:48 8.6 °C 8.6 °C 100 % 13 km/h (23 km/h) 0 mm0 mm 0 min 0 W/m²
05:42 8.6 °C 8.6 °C 100 % 13 km/h (24 km/h) 0 mm0 mm 0 min 0 W/m²
05:36 8.7 °C 8.7 °C 100 % 12 km/h (24 km/h) 0 mm0 mm 0 min 0 W/m²
05:30 8.8 °C 8.8 °C 100 % 16 km/h (28 km/h) 0 mm0 mm 0 min 0 W/m²
05:24 8.9 °C 8.9 °C 100 % 15 km/h (28 km/h) 0 mm0 mm 0 min 0 W/m²
05:18 8.9 °C 8.9 °C 100 % 15 km/h (30 km/h) 0 mm0 mm 0 min 0 W/m²
05:12 9 °C 9 °C 100 % 14 km/h (26 km/h) 0 mm0 mm 0 min 0 W/m²
05:06 9 °C 9 °C 100 % 15 km/h (29 km/h) 0 mm0 mm 0 min 0 W/m²
05:00 8.7 °C 8.6 °C 99 % 17 km/h (29 km/h) 0 mm0 mm 0 min 0 W/m²
04:54 8.8 °C 8.8 °C 100 % 17 km/h (29 km/h) 0 mm0 mm 0 min 0 W/m²
04:48 9.2 °C 9.2 °C 100 % 16 km/h (27 km/h) 0 mm0 mm 0 min 0 W/m²
04:42 9.1 °C 9.1 °C 100 % 16 km/h (27 km/h) 0 mm0 mm 0 min 0 W/m²
04:36 9.2 °C 9.2 °C 100 % 14 km/h (26 km/h) 0 mm0 mm 0 min 0 W/m²
04:30 9.3 °C 9.3 °C 100 % 14 km/h (24 km/h) 0 mm0 mm 0 min 0 W/m²
04:24 9.2 °C 9.1 °C 99 % 13 km/h (23 km/h) 0 mm0 mm 0 min 0 W/m²
04:18 9.3 °C 9.2 °C 99 % 13 km/h (23 km/h) 0 mm0 mm 0 min 0 W/m²
04:12 9.3 °C 9.2 °C 99 % 14 km/h (24 km/h) 0 mm0 mm 0 min 0 W/m²
04:06 9.4 °C 9.3 °C 99 % 14 km/h (26 km/h) 0 mm0 mm 0 min 0 W/m²
04:00 9.4 °C 9.1 °C 98 % 12 km/h (20 km/h) 0 mm0 mm 0 min 0 W/m²
03:54 9.3 °C 8.8 °C 97 % 12 km/h (21 km/h) 0 mm0 mm 0 min 0 W/m²
03:48 9.5 °C 9.2 °C 98 % 12 km/h (23 km/h) 0 mm0 mm 0 min 0 W/m²
03:42 9.7 °C 9.4 °C 98 % 12 km/h (23 km/h) 0 mm0 mm 0 min 0 W/m²
03:36 9.7 °C 9.2 °C 97 % 13 km/h (24 km/h) 0 mm0 mm 0 min 0 W/m²
03:30 9.9 °C 9.4 °C 97 % 13 km/h (23 km/h) 0 mm0 mm 0 min 0 W/m²
03:24 10 °C 9.5 °C 97 % 15 km/h (26 km/h) 0 mm0 mm 0 min 0 W/m²
03:18 10.2 °C 9.6 °C 96 % 18 km/h (28 km/h) 0 mm0 mm 0 min 0 W/m²
03:12 10.3 °C 9.4 °C 94 % 18 km/h (28 km/h) 0 mm0 mm 0 min 0 W/m²
03:06 10.3 °C 8.7 °C 90 % 15 km/h (30 km/h) 0 mm0 mm 0 min 0 W/m²
03:00 10.3 °C 8.2 °C 87 % 15 km/h (30 km/h) 0 mm0 mm 0 min 0 W/m²
02:54 10.4 °C 8.2 °C 86 % 15 km/h (23 km/h) 0 mm0 mm 0 min 0 W/m²
02:48 10.5 °C 7.9 °C 84 % 15 km/h (26 km/h) 0 mm0 mm 0 min 0 W/m²
02:42 10.5 °C 7.9 °C 84 % 15 km/h (24 km/h) 0 mm0 mm 0 min 0 W/m²
02:36 10.6 °C 8.2 °C 85 % 16 km/h (26 km/h) 0 mm0 mm 0 min 0 W/m²
02:30 10.5 °C 8.3 °C 86 % 16 km/h (27 km/h) 0 mm0 mm 0 min 0 W/m²
02:24 10.6 °C 8.5 °C 87 % 17 km/h (27 km/h) 0 mm0 mm 0 min 0 W/m²
02:18 10.6 °C 8.9 °C 89 % 16 km/h (27 km/h) 0 mm0 mm 0 min 0 W/m²
02:12 10.5 °C 8.9 °C 90 % 16 km/h (30 km/h) 0 mm0 mm 0 min 0 W/m²
02:06 10.4 °C 9.3 °C 93 % 15 km/h (25 km/h) 0 mm0 mm 0 min 0 W/m²
02:00 10.5 °C 9.6 °C 94 % 15 km/h (25 km/h) 0 mm0 mm 0 min 0 W/m²
01:54 10.5 °C 9.7 °C 95 % 14 km/h (24 km/h) 0 mm0 mm 0 min 0 W/m²
01:48 10.4 °C 9.6 °C 95 % 12 km/h (22 km/h) 0 mm0 mm 0 min 0 W/m²
01:42 10.3 °C 9.5 °C 95 % 12 km/h (19 km/h) 0 mm0 mm 0 min 0 W/m²
01:36 10.4 °C 9.6 °C 95 % 13 km/h (21 km/h) 0 mm0 mm 0 min 0 W/m²
01:30 10.4 °C 9.9 °C 97 % 12 km/h (20 km/h) 0 mm0 mm 0 min 0 W/m²
01:24 10.5 °C 10.2 °C 98 % 10 km/h (17 km/h) 0 mm0 mm 0 min 0 W/m²
01:18 10.5 °C 10.2 °C 98 % 9 km/h (16 km/h) 0 mm0 mm 0 min 0 W/m²
01:12 10.6 °C 10.3 °C 98 % 9 km/h (17 km/h) 0 mm0 mm 0 min 0 W/m²
01:06 10.6 °C 10.4 °C 99 % 8 km/h (15 km/h) 0 mm0 mm 0 min 0 W/m²
01:00 10.7 °C 10.4 °C 98 % 9 km/h (15 km/h) 0 mm0 mm 0 min 0 W/m²
00:54 10.7 °C 10.4 °C 98 % 9 km/h (18 km/h) 0 mm0 mm 0 min 0 W/m²
00:48 10.7 °C 10.4 °C 98 % 10 km/h (19 km/h) 0 mm0 mm 0 min 0 W/m²
00:42 11.2 °C 11 °C 99 % 10 km/h (19 km/h) 0 mm0 mm 0 min 0 W/m²
00:36 11.2 °C 11 °C 99 % 12 km/h (19 km/h) 0 mm0 mm 0 min 0 W/m²
00:30 11.5 °C 11.5 °C 100 % 12 km/h (21 km/h) 0 mm0 mm 0 min 0 W/m²
00:24 11.6 °C 11.6 °C 100 % 13 km/h (21 km/h) 0 mm0 mm 0 min 0 W/m²
00:18 11.8 °C 11.8 °C 100 % 14 km/h (25 km/h) 0 mm0 mm 0 min 0 W/m²
00:12 11.8 °C 11.6 °C 99 % 15 km/h (27 km/h) 0 mm0 mm 0 min 0 W/m²
00:06 11.8 °C 11.6 °C 99 % 13 km/h (27 km/h) 0 mm0 mm 0 min 0 W/m²
00:00 11.9 °C 11.7 °C 99 % 14 km/h (30 km/h) 0 mm0 mm 0 min 0 W/m²

Données via Météo-France

Relevés météo à Chastreix

Cette page rassemble les observations de la station de Chastreix : température, humidité, vent, précipitations et pression atmosphérique. Les graphiques facilitent le suivi de la journée, tandis que le tableau donne accès aux mesures horaires et infra-horaires disponibles.

Pour replacer ces mesures dans leur contexte, consultez la climatologie de Chastreix ainsi que ses normales et records. Retrouvez aussi la carte des observations météo en temps réel.